Time;durP1;ratioP1;P1;durP2;ratioP2;P2;SDS_P1;SDS_P2;PMS_P1;PMS_P2;Temp;Humidity;BMP_temperature;BMP_pressure;BME280_temperature;BME280_humidity;BME280_pressure;Samples;Min_cycle;Max_cycle;Signal;HPM_P1;HPM_P2
2023/01/04 00:00:31;;;;;;;;;;;6.50;99.90;;;;;;4985889;28;20047;-62
2023/01/04 00:02:59;;;;;;;;;;;6.50;99.90;;;;;;4994707;28;20342;-63
2023/01/04 00:05:27;;;;;;;;;;;6.20;99.90;;;;;;4994490;28;19971;-62
2023/01/04 00:07:55;;;;;;;;;;;6.20;99.90;;;;;;4994681;28;20353;-62
2023/01/04 00:10:24;;;;;;;;;;;6.00;99.90;;;;;;4963897;28;20460;-62
2023/01/04 00:12:51;;;;;;;;;;;5.90;99.90;;;;;;4973270;28;20006;-62
2023/01/04 00:15:19;;;;;;;;;;;5.80;99.90;;;;;;4988211;28;20349;-63
2023/01/04 00:17:47;;;;;;;;;;;5.80;99.90;;;;;;4993581;28;19970;-62
2023/01/04 00:20:16;;;;;;;;;;;5.80;99.90;;;;;;4994053;28;19978;-62
2023/01/04 00:22:44;;;;;;;;;;;5.80;99.90;;;;;;4994181;28;19973;-63
2023/01/04 00:25:11;;;;;;;;;;;5.80;99.90;;;;;;4993141;28;19975;-63
2023/01/04 00:27:41;;;;;;;;;;;5.80;99.90;;;;;;4966332;28;19964;-62
2023/01/04 00:30:09;;;;;;;;;;;5.80;99.90;;;;;;4985413;28;20014;-62
2023/01/04 00:32:36;;;;;;;;;;;5.80;99.90;;;;;;4994308;28;19973;-62
2023/01/04 00:35:04;;;;;;;;;;;5.80;99.90;;;;;;4993988;28;19979;-63
2023/01/04 00:37:32;;;;;;;;;;;5.80;99.90;;;;;;4994062;28;20022;-63
2023/01/04 00:40:00;;;;;;;;;;;5.80;99.90;;;;;;4991405;28;19980;-63
2023/01/04 00:42:28;;;;;;;;;;;5.70;99.90;;;;;;4974540;28;19969;-63
2023/01/04 00:44:57;;;;;;;;;;;5.70;99.90;;;;;;4973298;28;19978;-63
2023/01/04 00:47:24;;;;;;;;;;;5.70;99.90;;;;;;4974542;28;20073;-63
2023/01/04 00:49:52;;;;;;;;;;;5.70;99.90;;;;;;4973788;28;19975;-63
2023/01/04 00:52:20;;;;;;;;;;;5.70;99.90;;;;;;4974261;28;19980;-63
2023/01/04 00:54:47;;;;;;;;;;;5.60;99.90;;;;;;4971761;28;19973;-63
2023/01/04 00:57:15;;;;;;;;;;;5.50;99.90;;;;;;4955750;28;20072;-63
2023/01/04 00:59:43;;;;;;;;;;;5.50;99.90;;;;;;4984759;28;20060;-62
2023/01/04 01:02:12;;;;;;;;;;;5.40;99.90;;;;;;4956570;28;19976;-63
2023/01/04 01:04:40;;;;;;;;;;;5.40;99.90;;;;;;4954721;28;19997;-63
2023/01/04 01:07:07;;;;;;;;;;;5.30;99.90;;;;;;4956050;28;19976;-63
2023/01/04 01:09:35;;;;;;;;;;;5.30;99.90;;;;;;4965458;28;20443;-62
2023/01/04 01:12:03;;;;;;;;;;;5.20;99.90;;;;;;4973657;28;19969;-63
2023/01/04 01:14:31;;;;;;;;;;;5.20;99.90;;;;;;4973509;28;19969;-63
2023/01/04 01:16:58;;;;;;;;;;;5.30;99.90;;;;;;4973319;28;20028;-63
2023/01/04 01:19:28;;;;;;;;;;;5.20;99.90;;;;;;4954518;28;20447;-63
2023/01/04 01:21:56;;;;;;;;;;;5.10;99.90;;;;;;4964314;28;20001;-63
2023/01/04 01:24:24;;;;;;;;;;;5.20;99.90;;;;;;4965814;28;19980;-63
2023/01/04 01:26:52;;;;;;;;;;;5.20;99.90;;;;;;4954372;28;20019;-63
2023/01/04 01:29:20;;;;;;;;;;;5.20;99.90;;;;;;4979678;28;20040;-63
2023/01/04 01:31:47;;;;;;;;;;;5.10;99.90;;;;;;4992606;28;20419;-63
2023/01/04 01:34:15;;;;;;;;;;;5.10;99.90;;;;;;4983470;28;19961;-64
2023/01/04 01:36:44;;;;;;;;;;;4.90;99.90;;;;;;4954129;28;20393;-62
2023/01/04 01:39:12;;;;;;;;;;;4.90;99.90;;;;;;4954251;28;20079;-63
2023/01/04 01:41:40;;;;;;;;;;;5.00;99.90;;;;;;4953923;28;19969;-63
2023/01/04 01:44:22;;;;;;;;;;;4.90;99.90;;;;;;4953999;28;20392;-63
2023/01/04 01:46:52;;;;;;;;;;;4.90;99.90;;;;;;4954070;29;19973;-63
2023/01/04 01:49:23;;;;;;;;;;;5.00;99.90;;;;;;4960640;28;19969;-63
2023/01/04 01:51:54;;;;;;;;;;;5.00;99.90;;;;;;4971651;28;19975;-63
2023/01/04 01:54:30;;;;;;;;;;;4.90;99.90;;;;;;4973148;28;20015;-63
2023/01/04 01:56:58;;;;;;;;;;;4.90;99.90;;;;;;4968346;28;20019;-63
2023/01/04 01:59:27;;;;;;;;;;;4.90;99.90;;;;;;4981281;28;20015;-63
2023/01/04 02:01:54;;;;;;;;;;;5.00;99.90;;;;;;4992138;28;20498;-63
2023/01/04 02:04:23;;;;;;;;;;;4.90;99.90;;;;;;4972907;28;20066;-63
2023/01/04 02:06:51;;;;;;;;;;;4.90;99.90;;;;;;4953441;29;19975;-63
2023/01/04 02:09:21;;;;;;;;;;;4.80;99.90;;;;;;4955512;28;19990;-63
2023/01/04 02:11:48;;;;;;;;;;;4.90;99.90;;;;;;4953246;29;20068;-63
2023/01/04 02:14:27;;;;;;;;;;;4.90;99.90;;;;;;4953618;29;19972;-63
2023/01/04 02:17:00;;;;;;;;;;;4.90;99.90;;;;;;4953457;28;20012;-63
2023/01/04 02:19:36;;;;;;;;;;;5.00;99.90;;;;;;4963546;28;20028;-62
2023/01/04 02:22:17;;;;;;;;;;;5.00;99.90;;;;;;4957478;28;19986;-63
2023/01/04 02:24:53;;;;;;;;;;;5.00;99.90;;;;;;4915472;29;19976;-64
2023/01/04 02:27:29;;;;;;;;;;;5.10;99.90;;;;;;4935325;29;20407;-63
2023/01/04 02:30:15;;;;;;;;;;;5.20;99.90;;;;;;4943739;28;20081;-63
2023/01/04 02:32:50;;;;;;;;;;;5.20;99.90;;;;;;4940585;28;19967;-63
2023/01/04 02:35:21;;;;;;;;;;;5.20;99.90;;;;;;4915243;29;19981;-63
2023/01/04 02:37:50;;;;;;;;;;;5.20;99.90;;;;;;4915458;29;20085;-64
2023/01/04 02:40:20;;;;;;;;;;;5.20;99.90;;;;;;4915782;29;19981;-63
2023/01/04 02:45:44;;;;;;;;;;;5.20;99.90;;;;;;4920482;29;20629;-63
2023/01/04 02:50:59;;;;;;;;;;;5.20;99.90;;;;;;4937422;29;19970;-63
2023/01/04 02:53:28;;;;;;;;;;;5.20;99.90;;;;;;4938120;29;20027;-63
2023/01/04 02:56:02;;;;;;;;;;;5.20;99.90;;;;;;4937833;29;20069;-63
2023/01/04 02:58:35;;;;;;;;;;;5.20;99.90;;;;;;4945785;29;20024;-63
2023/01/04 03:06:50;;;;;;;;;;;5.10;99.90;;;;;;4937577;29;20460;-63
2023/01/04 03:09:19;;;;;;;;;;;5.20;99.90;;;;;;4937650;29;20410;-63
2023/01/04 03:14:46;;;;;;;;;;;5.20;99.90;;;;;;4925088;29;20027;-63
2023/01/04 03:17:16;;;;;;;;;;;5.20;99.90;;;;;;4935699;29;19971;-63
2023/01/04 03:19:53;;;;;;;;;;;5.20;99.90;;;;;;4936847;29;19992;-63
2023/01/04 03:36:20;;;;;;;;;;;5.40;99.90;;;;;;4975624;28;19972;-62
2023/01/04 03:50:06;;;;;;;;;;;5.50;99.90;;;;;;4973823;28;19968;-63
2023/01/04 03:52:35;;;;;;;;;;;5.50;99.90;;;;;;4975256;28;20091;-63
2023/01/04 03:55:05;;;;;;;;;;;5.40;99.90;;;;;;4975311;28;20002;-63
2023/01/04 03:57:33;;;;;;;;;;;5.50;99.90;;;;;;4971022;28;20030;-63
2023/01/04 04:00:05;;;;;;;;;;;5.40;99.90;;;;;;4986046;28;20011;-63
2023/01/04 04:02:34;;;;;;;;;;;5.40;99.90;;;;;;4987757;28;20076;-62
2023/01/04 04:10:33;;;;;;;;;;;5.40;99.90;;;;;;4973808;28;20020;-63
2023/01/04 04:13:01;;;;;;;;;;;5.40;99.90;;;;;;4974913;28;19971;-63
2023/01/04 04:15:29;;;;;;;;;;;5.40;99.90;;;;;;4975011;28;19995;-63
2023/01/04 04:17:56;;;;;;;;;;;5.40;99.90;;;;;;4973811;28;20053;-63
2023/01/04 04:20:24;;;;;;;;;;;5.40;99.90;;;;;;4974187;28;20347;-63
2023/01/04 04:22:53;;;;;;;;;;;5.40;99.90;;;;;;4974676;28;20397;-62
2023/01/04 04:25:21;;;;;;;;;;;5.40;99.90;;;;;;4973775;28;19965;-62
2023/01/04 04:27:48;;;;;;;;;;;5.40;99.90;;;;;;4959612;28;20071;-62
2023/01/04 04:30:16;;;;;;;;;;;5.40;99.90;;;;;;4954924;28;20498;-62
2023/01/04 04:32:44;;;;;;;;;;;5.40;99.90;;;;;;4956340;28;19966;-62
2023/01/04 04:35:12;;;;;;;;;;;5.40;99.90;;;;;;4955457;28;19965;-62
2023/01/04 04:37:39;;;;;;;;;;;5.30;99.90;;;;;;4954929;28;19970;-62
2023/01/04 04:41:37;;;;;;;;;;;5.40;99.90;;;;;;4977973;28;19969;-63
2023/01/04 04:42:56;;;;;;;;;;;5.40;99.90;;;;;;4955665;28;20011;-63
2023/01/04 04:45:24;;;;;;;;;;;5.40;99.90;;;;;;4955137;28;20398;-64
2023/01/04 04:47:51;;;;;;;;;;;5.50;99.90;;;;;;4969439;28;19993;-63
2023/01/04 04:50:19;;;;;;;;;;;5.40;99.90;;;;;;4973852;28;20399;-63
2023/01/04 04:52:47;;;;;;;;;;;5.40;99.90;;;;;;4974485;28;20438;-63
2023/01/04 04:55:23;;;;;;;;;;;5.40;99.90;;;;;;4974517;28;19965;-63
2023/01/04 04:57:51;;;;;;;;;;;5.40;99.90;;;;;;4959510;28;19970;-63
2023/01/04 05:00:19;;;;;;;;;;;5.40;99.90;;;;;;4954373;29;19992;-63
2023/01/04 05:02:46;;;;;;;;;;;5.50;99.90;;;;;;4954255;28;19972;-63
2023/01/04 05:05:15;;;;;;;;;;;5.40;99.90;;;;;;4954889;29;20017;-62
2023/01/04 05:07:42;;;;;;;;;;;5.50;99.90;;;;;;4954421;28;19966;-62
2023/01/04 05:10:10;;;;;;;;;;;5.40;99.90;;;;;;4977878;28;19965;-62
2023/01/04 05:15:24;;;;;;;;;;;5.50;99.90;;;;;;4954628;29;20063;-63
2023/01/04 05:17:52;;;;;;;;;;;5.60;99.90;;;;;;4967912;28;20104;-62
2023/01/04 05:20:20;;;;;;;;;;;5.60;99.90;;;;;;4973219;28;20080;-63
2023/01/04 05:22:48;;;;;;;;;;;5.50;99.90;;;;;;4973514;28;19976;-62
2023/01/04 05:25:15;;;;;;;;;;;5.50;99.90;;;;;;4974177;28;20398;-63
2023/01/04 05:27:44;;;;;;;;;;;5.60;99.90;;;;;;4963055;28;19975;-63
2023/01/04 05:33:07;;;;;;;;;;;5.60;99.90;;;;;;5185604;22;20007;-64
2023/01/04 05:35:35;;;;;;;;;;;5.60;99.90;;;;;;5078481;28;19965;-64
2023/01/04 05:38:03;;;;;;;;;;;5.60;99.90;;;;;;5054757;28;20940;-64
2023/01/04 05:40:31;;;;;;;;;;;5.60;99.90;;;;;;5057211;28;20398;-64
2023/01/04 05:43:00;;;;;;;;;;;5.60;99.90;;;;;;5032860;28;20055;-65
2023/01/04 05:45:27;;;;;;;;;;;5.60;99.90;;;;;;5050045;28;20125;-64
2023/01/04 05:47:55;;;;;;;;;;;5.60;99.90;;;;;;5049932;28;19972;-64
2023/01/04 05:50:23;;;;;;;;;;;5.60;99.90;;;;;;5046647;28;20063;-64
2023/01/04 05:52:51;;;;;;;;;;;5.60;99.90;;;;;;5050098;28;20411;-64
2023/01/04 05:55:19;;;;;;;;;;;5.60;99.90;;;;;;5050346;28;20336;-65
2023/01/04 05:57:47;;;;;;;;;;;5.60;99.90;;;;;;5035867;28;20372;-64
2023/01/04 06:00:16;;;;;;;;;;;5.60;99.90;;;;;;5030309;28;20049;-64
2023/01/04 06:02:44;;;;;;;;;;;5.60;99.90;;;;;;5031192;28;20004;-64
2023/01/04 06:05:12;;;;;;;;;;;5.60;99.90;;;;;;5039033;28;19974;-64
2023/01/04 06:07:40;;;;;;;;;;;5.60;99.90;;;;;;5039064;28;20003;-64
2023/01/04 06:10:11;;;;;;;;;;;5.70;99.90;;;;;;5034969;28;19933;-64
2023/01/04 06:12:39;;;;;;;;;;;5.70;99.90;;;;;;5047104;28;20043;-65
2023/01/04 06:15:08;;;;;;;;;;;5.70;99.90;;;;;;5045300;28;20028;-64
2023/01/04 06:17:38;;;;;;;;;;;5.60;99.90;;;;;;5053528;28;20340;-64
2023/01/04 06:20:07;;;;;;;;;;;5.60;99.90;;;;;;5061242;28;19961;-64
2023/01/04 06:22:36;;;;;;;;;;;5.70;99.90;;;;;;5064586;28;19959;-64
2023/01/04 06:25:04;;;;;;;;;;;5.70;99.90;;;;;;5051361;28;19966;-65
2023/01/04 06:27:31;;;;;;;;;;;5.60;99.90;;;;;;5051972;28;19991;-64
2023/01/04 06:29:59;;;;;;;;;;;5.60;99.90;;;;;;5046241;28;20067;-64
2023/01/04 06:32:27;;;;;;;;;;;5.60;99.90;;;;;;5046677;28;19961;-65
2023/01/04 06:34:56;;;;;;;;;;;5.70;99.90;;;;;;5046020;28;20004;-64
2023/01/04 06:37:24;;;;;;;;;;;5.70;99.90;;;;;;5050329;28;19993;-64
2023/01/04 06:39:51;;;;;;;;;;;5.70;99.90;;;;;;5049535;28;19967;-64
2023/01/04 06:45:13;;;;;;;;;;;5.60;99.90;;;;;;5013525;28;20049;-64
2023/01/04 06:47:40;;;;;;;;;;;5.50;99.90;;;;;;5042284;28;20126;-65
2023/01/04 06:50:09;;;;;;;;;;;5.50;99.90;;;;;;5039246;28;19991;-64
2023/01/04 06:52:37;;;;;;;;;;;5.50;99.90;;;;;;5052756;28;20300;-64
2023/01/04 06:55:08;;;;;;;;;;;5.50;99.90;;;;;;5051475;28;20016;-64
2023/01/04 06:57:36;;;;;;;;;;;5.50;99.90;;;;;;5055712;28;19974;-64
2023/01/04 07:00:04;;;;;;;;;;;5.50;99.90;;;;;;5048990;28;19967;-64
2023/01/04 07:02:32;;;;;;;;;;;5.50;99.90;;;;;;5041662;28;20477;-65
2023/01/04 07:05:00;;;;;;;;;;;5.50;99.90;;;;;;5048286;28;20315;-65
2023/01/04 07:07:29;;;;;;;;;;;5.50;99.90;;;;;;5060802;28;20029;-65
2023/01/04 07:09:57;;;;;;;;;;;5.50;99.90;;;;;;5048047;28;20508;-65
2023/01/04 07:12:32;;;;;;;;;;;5.50;99.90;;;;;;5050506;28;19927;-65
2023/01/04 07:14:59;;;;;;;;;;;5.50;99.90;;;;;;5040089;28;20055;-65
2023/01/04 07:17:27;;;;;;;;;;;5.50;99.90;;;;;;5045228;28;19931;-64
2023/01/04 07:19:56;;;;;;;;;;;5.60;99.90;;;;;;5042834;28;19968;-63
2023/01/04 07:22:24;;;;;;;;;;;5.80;99.90;;;;;;5040521;28;19964;-64
2023/01/04 07:24:53;;;;;;;;;;;5.90;99.90;;;;;;5044229;28;19961;-64
2023/01/04 07:27:21;;;;;;;;;;;5.70;99.90;;;;;;5057349;28;19920;-66
2023/01/04 07:29:49;;;;;;;;;;;5.70;99.90;;;;;;5056577;28;20277;-65
2023/01/04 07:32:17;;;;;;;;;;;5.60;99.90;;;;;;5071259;28;19924;-65
2023/01/04 07:34:45;;;;;;;;;;;5.60;99.90;;;;;;5073396;28;19925;-65
2023/01/04 07:37:14;;;;;;;;;;;5.60;99.90;;;;;;5056422;28;20428;-65
2023/01/04 07:39:42;;;;;;;;;;;5.60;99.90;;;;;;5055776;28;19925;-65
2023/01/04 07:42:11;;;;;;;;;;;5.60;99.90;;;;;;5054102;28;20019;-65
2023/01/04 07:44:39;;;;;;;;;;;5.60;99.90;;;;;;5036083;28;19931;-65
2023/01/04 07:47:07;;;;;;;;;;;5.70;99.90;;;;;;5054029;28;19925;-65
2023/01/04 07:49:35;;;;;;;;;;;5.70;99.90;;;;;;5053482;28;19924;-65
2023/01/04 07:52:03;;;;;;;;;;;5.70;99.90;;;;;;5054215;28;19928;-65
2023/01/04 07:54:31;;;;;;;;;;;5.70;99.90;;;;;;5054452;28;19929;-65
2023/01/04 07:56:59;;;;;;;;;;;5.70;99.90;;;;;;5054025;28;19932;-65
2023/01/04 07:59:28;;;;;;;;;;;5.80;99.90;;;;;;5053932;28;19932;-65
2023/01/04 08:01:56;;;;;;;;;;;5.80;99.90;;;;;;5035806;28;20305;-65
2023/01/04 08:04:24;;;;;;;;;;;5.80;99.90;;;;;;5053781;28;20027;-65
2023/01/04 08:07:01;;;;;;;;;;;5.90;99.90;;;;;;5053995;28;20402;-65
2023/01/04 08:09:29;;;;;;;;;;;5.90;99.90;;;;;;5053041;28;19944;-66
2023/01/04 08:11:56;;;;;;;;;;;6.00;99.90;;;;;;5053410;28;19928;-66
2023/01/04 08:14:24;;;;;;;;;;;6.00;99.90;;;;;;5053932;28;20382;-66
2023/01/04 08:16:53;;;;;;;;;;;6.00;99.90;;;;;;5053817;28;19932;-66
2023/01/04 08:19:21;;;;;;;;;;;6.00;99.90;;;;;;5053585;28;20250;-66
2023/01/04 08:21:49;;;;;;;;;;;6.10;99.90;;;;;;5052893;28;19925;-66
2023/01/04 08:24:18;;;;;;;;;;;6.10;99.90;;;;;;5053448;28;20297;-66
2023/01/04 08:26:47;;;;;;;;;;;6.10;99.90;;;;;;5053656;28;20002;-66
2023/01/04 08:29:15;;;;;;;;;;;6.10;99.90;;;;;;5053538;28;19925;-66
2023/01/04 08:31:42;;;;;;;;;;;6.20;99.90;;;;;;5052404;28;19925;-66
2023/01/04 08:34:12;;;;;;;;;;;6.20;99.90;;;;;;5053083;28;20035;-66
2023/01/04 08:36:47;;;;;;;;;;;6.20;99.90;;;;;;5053152;28;19935;-66
2023/01/04 08:39:14;;;;;;;;;;;6.30;99.90;;;;;;5051674;28;19959;-66
2023/01/04 08:41:50;;;;;;;;;;;6.20;99.90;;;;;;5052385;28;20297;-66
2023/01/04 08:44:38;;;;;;;;;;;6.20;99.90;;;;;;5053300;28;19963;-66
2023/01/04 08:47:06;;;;;;;;;;;6.30;99.90;;;;;;5053071;28;19929;-66
2023/01/04 08:49:35;;;;;;;;;;;6.30;99.90;;;;;;5051672;28;19983;-65
2023/01/04 08:52:03;;;;;;;;;;;6.30;99.90;;;;;;5052204;28;19979;-66
2023/01/04 08:54:31;;;;;;;;;;;6.40;99.90;;;;;;5053045;28;20382;-66
2023/01/04 08:56:59;;;;;;;;;;;6.40;99.90;;;;;;5053033;28;19925;-66
2023/01/04 08:59:26;;;;;;;;;;;6.40;99.90;;;;;;5052614;28;20331;-66
2023/01/04 09:01:54;;;;;;;;;;;6.40;99.90;;;;;;5052363;28;20197;-66
2023/01/04 09:04:31;;;;;;;;;;;6.40;99.90;;;;;;5053178;28;19931;-66
2023/01/04 09:07:01;;;;;;;;;;;6.40;99.90;;;;;;5052994;28;19928;-66
2023/01/04 09:09:29;;;;;;;;;;;6.50;99.90;;;;;;5052225;28;20024;-66
2023/01/04 09:11:58;;;;;;;;;;;6.50;99.90;;;;;;5052156;28;20347;-66
2023/01/04 09:14:26;;;;;;;;;;;6.60;99.90;;;;;;5052763;28;20015;-66
2023/01/04 09:16:54;;;;;;;;;;;6.60;99.90;;;;;;5052549;28;19974;-66
2023/01/04 09:19:22;;;;;;;;;;;6.80;99.90;;;;;;5052311;28;20356;-66
2023/01/04 09:21:50;;;;;;;;;;;7.00;99.90;;;;;;5051871;28;19925;-67
2023/01/04 09:24:19;;;;;;;;;;;7.20;99.90;;;;;;5052191;28;19959;-66
2023/01/04 09:26:47;;;;;;;;;;;7.30;99.90;;;;;;5052548;28;19928;-66
2023/01/04 09:29:15;;;;;;;;;;;7.50;99.90;;;;;;5034362;28;19925;-66
2023/01/04 09:31:43;;;;;;;;;;;7.60;99.90;;;;;;5051379;28;20436;-66
2023/01/04 09:34:11;;;;;;;;;;;7.70;99.90;;;;;;5052025;28;19982;-66
2023/01/04 09:36:42;;;;;;;;;;;7.80;99.90;;;;;;5052396;28;19925;-66
2023/01/04 09:39:10;;;;;;;;;;;7.80;99.90;;;;;;5051753;28;20370;-66
2023/01/04 09:41:52;;;;;;;;;;;7.80;99.90;;;;;;5045152;28;19925;-67
2023/01/04 09:44:25;;;;;;;;;;;7.90;99.90;;;;;;5052289;28;19924;-66
2023/01/04 09:47:14;;;;;;;;;;;7.90;99.90;;;;;;5051989;28;20301;-66
2023/01/04 09:49:45;;;;;;;;;;;8.00;99.90;;;;;;5050640;28;19929;-66
2023/01/04 09:52:14;;;;;;;;;;;8.00;99.90;;;;;;5034021;28;19947;-66
2023/01/04 09:54:44;;;;;;;;;;;8.10;99.90;;;;;;5051793;28;19924;-67
2023/01/04 09:57:18;;;;;;;;;;;8.10;99.90;;;;;;5052017;28;19925;-66
2023/01/04 09:59:48;;;;;;;;;;;8.10;99.90;;;;;;5050938;28;20472;-66
2023/01/04 10:02:18;;;;;;;;;;;8.20;99.90;;;;;;5051783;28;19937;-67
2023/01/04 10:04:48;;;;;;;;;;;8.20;99.90;;;;;;5051932;28;19925;-66
2023/01/04 10:07:18;;;;;;;;;;;8.20;99.90;;;;;;5051878;28;19932;-66
2023/01/04 10:09:45;;;;;;;;;;;8.20;99.90;;;;;;5048005;28;19921;-66
2023/01/04 10:12:20;;;;;;;;;;;8.30;99.90;;;;;;5051611;28;20011;-66
2023/01/04 10:14:53;;;;;;;;;;;8.20;99.90;;;;;;5051704;28;19925;-66
2023/01/04 10:17:30;;;;;;;;;;;8.30;99.90;;;;;;5051749;28;19968;-66
2023/01/04 10:20:32;;;;;;;;;;;8.30;99.90;;;;;;5050901;28;19920;-67
2023/01/04 10:23:23;;;;;;;;;;;8.30;99.90;;;;;;5051172;28;19944;-67
2023/01/04 10:25:54;;;;;;;;;;;8.30;99.90;;;;;;5051522;28;19921;-67
2023/01/04 10:28:30;;;;;;;;;;;8.40;99.90;;;;;;5051704;28;19921;-67
2023/01/04 10:31:01;;;;;;;;;;;8.40;99.90;;;;;;5050944;28;20370;-67
2023/01/04 10:33:49;;;;;;;;;;;8.40;99.90;;;;;;5051540;28;19921;-68
2023/01/04 10:36:19;;;;;;;;;;;8.50;99.90;;;;;;5051861;28;19921;-68
2023/01/04 10:38:51;;;;;;;;;;;8.50;99.90;;;;;;5051072;28;19972;-67
2023/01/04 10:41:23;;;;;;;;;;;8.50;99.90;;;;;;5050639;28;20023;-67
2023/01/04 10:43:58;;;;;;;;;;;8.50;99.90;;;;;;5051642;28;20385;-67
2023/01/04 10:46:44;;;;;;;;;;;8.50;99.90;;;;;;5051577;28;19920;-67
2023/01/04 10:49:16;;;;;;;;;;;8.50;99.90;;;;;;5051278;28;20293;-67
2023/01/04 10:51:51;;;;;;;;;;;8.40;99.90;;;;;;5050919;28;19924;-65
2023/01/04 10:54:24;;;;;;;;;;;8.60;99.90;;;;;;5050989;28;19928;-65
2023/01/04 10:56:56;;;;;;;;;;;8.60;99.90;;;;;;5051371;28;20079;-65
2023/01/04 10:59:28;;;;;;;;;;;8.60;99.90;;;;;;5051433;28;20023;-67
2023/01/04 11:01:58;;;;;;;;;;;8.60;99.90;;;;;;5053073;28;19983;-67
2023/01/04 11:04:29;;;;;;;;;;;8.60;99.90;;;;;;5055363;28;20354;-67
2023/01/04 11:06:59;;;;;;;;;;;8.60;99.90;;;;;;5055084;28;19971;-67
2023/01/04 11:09:29;;;;;;;;;;;8.60;99.90;;;;;;5054628;28;19989;-65
2023/01/04 11:11:57;;;;;;;;;;;8.70;99.90;;;;;;5054338;28;19924;-65
2023/01/04 11:14:26;;;;;;;;;;;8.70;99.90;;;;;;5055117;28;19925;-65
2023/01/04 11:17:05;;;;;;;;;;;8.70;99.90;;;;;;5055130;28;20027;-65
2023/01/04 11:19:33;;;;;;;;;;;8.70;99.90;;;;;;5054340;28;19960;-65
2023/01/04 11:22:01;;;;;;;;;;;8.80;99.90;;;;;;5054759;28;19971;-65
2023/01/04 11:24:30;;;;;;;;;;;8.80;99.90;;;;;;5035772;28;19942;-65
2023/01/04 11:27:04;;;;;;;;;;;8.80;99.90;;;;;;5036519;28;19932;-65
2023/01/04 11:29:35;;;;;;;;;;;8.90;99.90;;;;;;5034421;28;19984;-65
2023/01/04 11:32:05;;;;;;;;;;;8.90;99.90;;;;;;5065662;22;19999;-64
2023/01/04 11:34:47;;;;;;;;;;;8.90;99.90;;;;;;5054494;28;19964;-64
2023/01/04 11:37:23;;;;;;;;;;;8.90;99.90;;;;;;5051002;28;19964;-64
2023/01/04 11:39:51;;;;;;;;;;;9.00;99.90;;;;;;5042492;28;20031;-63
2023/01/04 11:42:20;;;;;;;;;;;9.00;99.90;;;;;;5044845;28;20019;-64
2023/01/04 11:44:58;;;;;;;;;;;9.00;99.90;;;;;;5034597;28;20028;-64
2023/01/04 11:47:27;;;;;;;;;;;9.00;99.90;;;;;;5034681;28;20368;-64
2023/01/04 11:49:59;;;;;;;;;;;9.10;99.90;;;;;;5033685;28;20355;-64
2023/01/04 11:52:29;;;;;;;;;;;9.10;99.90;;;;;;5033933;28;20016;-64
2023/01/04 11:54:56;;;;;;;;;;;9.10;99.90;;;;;;5034317;28;20017;-64
2023/01/04 11:57:24;;;;;;;;;;;9.10;99.90;;;;;;5034469;28;19927;-63
2023/01/04 12:02:48;;;;;;;;;;;9.10;99.90;;;;;;5089125;28;20446;-63
2023/01/04 12:05:32;;;;;;;;;;;9.10;99.90;;;;;;5069800;28;20443;-63
2023/01/04 12:07:59;;;;;;;;;;;9.20;99.90;;;;;;5055448;28;20289;-64
2023/01/04 12:10:27;;;;;;;;;;;9.20;99.90;;;;;;5071679;28;19926;-63
2023/01/04 12:12:56;;;;;;;;;;;9.20;99.90;;;;;;5083009;28;20328;-64
2023/01/04 12:15:26;;;;;;;;;;;9.20;99.90;;;;;;5089066;28;19925;-63
2023/01/04 12:17:57;;;;;;;;;;;9.20;99.90;;;;;;5089111;28;20002;-63
2023/01/04 12:20:28;;;;;;;;;;;9.30;99.90;;;;;;5088368;28;19921;-64
2023/01/04 12:22:56;;;;;;;;;;;9.30;99.90;;;;;;5057749;28;20285;-63
2023/01/04 12:25:32;;;;;;;;;;;9.30;99.90;;;;;;5048642;28;19927;-63
2023/01/04 12:28:00;;;;;;;;;;;9.30;99.90;;;;;;5048750;28;19947;-63
2023/01/04 12:30:35;;;;;;;;;;;9.30;99.90;;;;;;5048028;28;19928;-63
2023/01/04 12:33:18;;;;;;;;;;;9.30;99.90;;;;;;5048662;28;19948;-63
2023/01/04 12:36:01;;;;;;;;;;;9.30;99.90;;;;;;5048539;28;20386;-64
2023/01/04 12:38:48;;;;;;;;;;;9.20;99.90;;;;;;5068589;28;19951;-63
2023/01/04 12:41:17;;;;;;;;;;;9.30;99.90;;;;;;5072997;28;19950;-63
2023/01/04 12:43:46;;;;;;;;;;;9.30;99.90;;;;;;5088643;28;20049;-63
2023/01/04 12:49:49;;;;;;;;;;;9.30;99.90;;;;;;5060043;28;20448;-63
2023/01/04 12:52:38;;;;;;;;;;;9.30;99.90;;;;;;5058508;28;19959;-63
2023/01/04 12:55:44;;;;;;;;;;;9.30;99.90;;;;;;5048115;28;19920;-63
2023/01/04 12:58:31;;;;;;;;;;;9.30;99.90;;;;;;5044056;28;20391;-64
2023/01/04 13:01:25;;;;;;;;;;;9.30;99.90;;;;;;5055098;28;20285;-63
2023/01/04 13:03:58;;;;;;;;;;;9.30;99.90;;;;;;5067945;28;20068;-63
2023/01/04 13:06:34;;;;;;;;;;;9.40;99.90;;;;;;5067877;28;20049;-63
2023/01/04 13:09:01;;;;;;;;;;;9.40;99.90;;;;;;5071318;28;19963;-64
2023/01/04 13:11:36;;;;;;;;;;;9.40;99.90;;;;;;5097472;28;19970;-63
2023/01/04 13:14:07;;;;;;;0.50;0.40;;;9.50;99.90;;;;;;5095085;28;19966;-64
2023/01/04 13:16:41;;;;;;;;;;;9.40;99.90;;;;;;5094689;28;20581;-64
2023/01/04 13:19:11;;;;;;;;;;;9.40;99.90;;;;;;5094362;28;19916;-64
2023/01/04 13:21:39;;;;;;;;;;;9.40;99.90;;;;;;5077503;28;20361;-63
2023/01/04 13:24:21;;;;;;;;;;;9.50;99.90;;;;;;5074191;28;20374;-64
2023/01/04 13:26:49;;;;;;;;;;;9.50;99.90;;;;;;5074217;28;20381;-64
2023/01/04 13:29:19;;;;;;;;;;;9.50;99.90;;;;;;5074217;28;19969;-64
2023/01/04 13:31:52;;;;;;;;;;;9.50;99.90;;;;;;5073578;28;19916;-63
2023/01/04 13:34:25;;;;;;;;;;;9.50;99.90;;;;;;5073925;28;19916;-63
2023/01/04 13:36:54;;;;;;;;;;;9.60;99.90;;;;;;5055680;28;20003;-63
2023/01/04 13:39:22;;;;;;;;;;;9.50;99.90;;;;;;5061472;28;20010;-63
2023/01/04 13:41:51;;;;;;;;;;;9.60;99.90;;;;;;5084775;28;19966;-63
2023/01/04 13:44:22;;;;;;;;;;;9.60;99.90;;;;;;5094074;28;20371;-63
2023/01/04 13:47:01;;;;;;;;;;;9.60;99.90;;;;;;5094067;28;19955;-63
2023/01/04 13:49:28;;;;;;;;;;;9.60;99.90;;;;;;5093395;28;19943;-63
2023/01/04 13:52:13;;;;;;;;;;;9.60;99.90;;;;;;5053384;28;19916;-63
2023/01/04 13:55:11;;;;;;;;;;;9.60;99.90;;;;;;5053743;28;19923;-63
2023/01/04 13:57:38;;;;;;;;;;;9.60;99.90;;;;;;5053887;28;20304;-63
2023/01/04 14:00:07;;;;;;;;;;;9.60;99.90;;;;;;5052978;28;20007;-63
2023/01/04 14:02:36;;;;;;;;;;;9.70;99.90;;;;;;5053146;28;20361;-63
2023/01/04 14:05:04;;;;;;;;;;;9.70;99.90;;;;;;5060249;28;19916;-63
2023/01/04 14:07:32;;;;;;;;;;;9.70;99.90;;;;;;5073353;28;20011;-64
2023/01/04 14:10:00;;;;;;;;;;;9.70;99.90;;;;;;5079280;28;19922;-64
2023/01/04 14:12:28;;;;;;;;;;;9.70;99.90;;;;;;5084787;28;19916;-64
2023/01/04 14:14:57;;;;;;;;;;;9.70;99.90;;;;;;5093626;28;19993;-64
2023/01/04 14:17:30;;;;;;;;;;;9.70;99.90;;;;;;5093521;28;19916;-64
2023/01/04 14:19:59;;;;;;;;;;;9.80;99.90;;;;;;5074437;28;19917;-65
2023/01/04 14:22:28;;;;;;;;;;;9.80;99.90;;;;;;5052987;28;20579;-64
2023/01/04 14:24:56;;;;;;;;;;;9.80;99.90;;;;;;5052138;28;19923;-64
2023/01/04 14:27:41;;;;;;;;;;;9.80;99.90;;;;;;5053174;28;19925;-63
2023/01/04 14:30:22;;;;;;;;;;;9.80;99.90;;;;;;5052348;28;19958;-64
2023/01/04 14:32:54;;;;;;;;;;;9.80;99.90;;;;;;5052690;28;19929;-64
2023/01/04 14:35:24;;;;;;;;;;;9.80;99.90;;;;;;5053076;28;19970;-64
2023/01/04 14:37:52;;;;;;;;;;;9.80;99.90;;;;;;5052877;28;19916;-64
2023/01/04 14:40:23;;;;;;;;;;;9.80;99.90;;;;;;5074591;28;19998;-63
2023/01/04 14:42:51;;;;;;;;;;;9.80;99.90;;;;;;5086347;28;20018;-64
2023/01/04 14:45:19;;;;;;;;;;;9.80;99.90;;;;;;5092837;28;19920;-63
2023/01/04 14:47:47;;;;;;;;;;;9.80;99.90;;;;;;5092863;28;19916;-64
2023/01/04 14:50:16;;;;;;;;;;;9.80;99.90;;;;;;5060587;28;19967;-64
2023/01/04 14:52:51;;;;;;;;;;;9.80;99.90;;;;;;5052306;28;20436;-64
2023/01/04 14:55:19;;;;;;;;;;;9.80;99.90;;;;;;5052649;28;20012;-64
2023/01/04 14:57:46;;;;;;;;;;;9.80;99.90;;;;;;5052476;28;20637;-63
2023/01/04 15:00:15;;;;;;;;;;;9.80;99.90;;;;;;5052045;28;19917;-64
2023/01/04 15:02:48;;;;;;;;;;;9.80;99.90;;;;;;5052438;28;19920;-64
2023/01/04 15:05:18;;;;;;;;;;;9.80;99.90;;;;;;5052546;28;19924;-65
2023/01/04 15:07:46;;;;;;;;;;;9.80;99.90;;;;;;5052357;28;19920;-63
2023/01/04 15:10:20;;;;;;;;;;;9.80;99.90;;;;;;5073276;28;19920;-64
2023/01/04 15:12:48;;;;;;;;;;;9.70;99.90;;;;;;5085488;28;19923;-64
2023/01/04 15:15:16;;;;;;;;;;;9.70;99.90;;;;;;5092550;28;19947;-64
2023/01/04 15:17:44;;;;;;;;;;;9.70;99.90;;;;;;5092345;28;19924;-64
2023/01/04 15:20:11;;;;;;;;;;;9.70;99.90;;;;;;5052186;28;19916;-64
2023/01/04 15:22:39;;;;;;;;;;;9.60;99.90;;;;;;5051600;28;20019;-64
2023/01/04 15:25:07;;;;;;;;;;;9.60;99.90;;;;;;5051899;28;19944;-64
2023/01/04 15:27:36;;;;;;;;;;;9.60;99.90;;;;;;5051875;28;20011;-64
2023/01/04 15:30:10;;;;;;;;;;;9.60;99.90;;;;;;5051377;28;19923;-64
2023/01/04 15:32:37;;;;;;;;;;;9.60;99.90;;;;;;5051718;28;19962;-64
2023/01/04 15:35:06;;;;;;;;;;;9.60;99.90;;;;;;5055449;28;19931;-64
2023/01/04 15:37:33;;;;;;;;;;;9.60;99.90;;;;;;5071859;28;20377;-64
2023/01/04 15:40:01;;;;;;;;;;;9.50;99.90;;;;;;5077997;28;20311;-64
2023/01/04 15:45:17;;;;;;;;;;;9.50;99.90;;;;;;5092055;28;19916;-64
2023/01/04 15:47:45;;;;;;;;;;;9.40;99.90;;;;;;5084111;28;19927;-64
2023/01/04 15:50:12;;;;;;;;;;;9.40;99.90;;;;;;5051030;28;19923;-65